Terminal Aerodrome Forecast
Issued by NWS Sterling, VA

Current Version | Previous Version | Graphics & Text | Print | Product List | Glossary On
Versions: 1 2 3 4 5 6 7 8 9 10 11 12 13 14 15
000
FTUS41 KLWX 261137
TAFMRB
TAF
KMRB 261137Z 2612/2712 33005KT P6SM SCT150 BKN250
     FM262100 27004KT P6SM SCT200
     FM270000 00000KT P6SM FEW100 SCT250=

USA.gov is the U.S. government's official web portal to all federal, state and local government web resources and services.